sensor_id;sensor_type;location;lat;lon;timestamp;pressure;altitude;pressure_sealevel;temperature
62932;BMP280;49037;41.898;25.004;2023-07-24T00:01:50;96674.34;;;21.54
62932;BMP280;49037;41.898;25.004;2023-07-24T00:04:16;96667.69;;;21.57
62932;BMP280;49037;41.898;25.004;2023-07-24T00:06:41;96669.41;;;21.50
62932;BMP280;49037;41.898;25.004;2023-07-24T00:10:02;96678.44;;;21.41
62932;BMP280;49037;41.898;25.004;2023-07-24T00:12:28;96676.81;;;21.36
62932;BMP280;49037;41.898;25.004;2023-07-24T00:14:56;96676.41;;;21.29
62932;BMP280;49037;41.898;25.004;2023-07-24T00:17:22;96660.03;;;21.15
62932;BMP280;49037;41.898;25.004;2023-07-24T00:19:50;96669.81;;;21.20
62932;BMP280;49037;41.898;25.004;2023-07-24T00:22:53;96658.50;;;21.12
62932;BMP280;49037;41.898;25.004;2023-07-24T00:25:21;96649.56;;;21.10
62932;BMP280;49037;41.898;25.004;2023-07-24T00:27:49;96666.41;;;21.20
62932;BMP280;49037;41.898;25.004;2023-07-24T00:30:14;96670.78;;;21.13
62932;BMP280;49037;41.898;25.004;2023-07-24T00:32:40;96660.63;;;21.14
62932;BMP280;49037;41.898;25.004;2023-07-24T00:35:06;96639.22;;;20.95
62932;BMP280;49037;41.898;25.004;2023-07-24T00:37:36;96655.72;;;20.99
62932;BMP280;49037;41.898;25.004;2023-07-24T00:40:02;96663.66;;;20.95
62932;BMP280;49037;41.898;25.004;2023-07-24T00:42:30;96660.00;;;20.91
62932;BMP280;49037;41.898;25.004;2023-07-24T00:44:58;96650.81;;;20.84
62932;BMP280;49037;41.898;25.004;2023-07-24T00:47:27;96634.25;;;20.67
62932;BMP280;49037;41.898;25.004;2023-07-24T00:49:53;96642.81;;;20.75
62932;BMP280;49037;41.898;25.004;2023-07-24T00:52:29;96646.63;;;20.70
62932;BMP280;49037;41.898;25.004;2023-07-24T00:55:13;96649.22;;;20.68
62932;BMP280;49037;41.898;25.004;2023-07-24T00:59:06;96638.88;;;20.64
62932;BMP280;49037;41.898;25.004;2023-07-24T01:01:35;96647.81;;;20.67
62932;BMP280;49037;41.898;25.004;2023-07-24T01:04:48;96647.28;;;20.82
62932;BMP280;49037;41.898;25.004;2023-07-24T01:07:14;96651.31;;;20.81
62932;BMP280;49037;41.898;25.004;2023-07-24T01:09:51;96635.78;;;20.70
62932;BMP280;49037;41.898;25.004;2023-07-24T01:14:24;96621.41;;;20.56
62932;BMP280;49037;41.898;25.004;2023-07-24T01:16:53;96641.22;;;20.70
62932;BMP280;49037;41.898;25.004;2023-07-24T01:19:42;96633.75;;;20.70
62932;BMP280;49037;41.898;25.004;2023-07-24T01:25:01;96635.78;;;20.70
62932;BMP280;49037;41.898;25.004;2023-07-24T01:27:28;96647.56;;;20.63
62932;BMP280;49037;41.898;25.004;2023-07-24T01:29:54;96633.78;;;20.59
62932;BMP280;49037;41.898;25.004;2023-07-24T01:34:24;96644.84;;;20.63
62932;BMP280;49037;41.898;25.004;2023-07-24T01:38:28;96633.69;;;20.57
62932;BMP280;49037;41.898;25.004;2023-07-24T01:40:57;96628.16;;;20.44
62932;BMP280;49037;41.898;25.004;2023-07-24T01:43:30;96648.81;;;20.49
62932;BMP280;49037;41.898;25.004;2023-07-24T01:45:57;96639.75;;;20.44
62932;BMP280;49037;41.898;25.004;2023-07-24T01:48:23;96651.25;;;20.56
62932;BMP280;49037;41.898;25.004;2023-07-24T01:50:48;96654.38;;;20.51
62932;BMP280;49037;41.898;25.004;2023-07-24T01:53:54;96655.22;;;20.42
62932;BMP280;49037;41.898;25.004;2023-07-24T01:59:08;96642.00;;;20.25
62932;BMP280;49037;41.898;25.004;2023-07-24T02:01:33;96648.59;;;20.33
62932;BMP280;49037;41.898;25.004;2023-07-24T02:04:33;96646.72;;;20.36
62932;BMP280;49037;41.898;25.004;2023-07-24T02:06:59;96659.06;;;20.39
62932;BMP280;49037;41.898;25.004;2023-07-24T02:09:24;96646.47;;;20.32
62932;BMP280;49037;41.898;25.004;2023-07-24T02:11:50;96646.97;;;20.28
62932;BMP280;49037;41.898;25.004;2023-07-24T02:14:17;96645.53;;;20.27
62932;BMP280;49037;41.898;25.004;2023-07-24T02:16:43;96649.31;;;20.22
62932;BMP280;49037;41.898;25.004;2023-07-24T02:19:09;96648.38;;;20.29
62932;BMP280;49037;41.898;25.004;2023-07-24T02:21:34;96639.88;;;20.23
62932;BMP280;49037;41.898;25.004;2023-07-24T02:24:00;96628.44;;;20.02
62932;BMP280;49037;41.898;25.004;2023-07-24T02:26:27;96636.25;;;20.08
62932;BMP280;49037;41.898;25.004;2023-07-24T02:29:29;96640.63;;;20.01
62932;BMP280;49037;41.898;25.004;2023-07-24T02:32:19;96641.56;;;20.06
62932;BMP280;49037;41.898;25.004;2023-07-24T02:36:43;96629.78;;;19.90
62932;BMP280;49037;41.898;25.004;2023-07-24T02:39:12;96638.41;;;19.98
62932;BMP280;49037;41.898;25.004;2023-07-24T02:41:40;96628.38;;;19.89
62932;BMP280;49037;41.898;25.004;2023-07-24T02:44:05;96639.44;;;19.93
62932;BMP280;49037;41.898;25.004;2023-07-24T02:46:31;96627.53;;;19.86
62932;BMP280;49037;41.898;25.004;2023-07-24T02:49:17;96627.88;;;19.92
62932;BMP280;49037;41.898;25.004;2023-07-24T02:51:42;96642.75;;;20.03
62932;BMP280;49037;41.898;25.004;2023-07-24T02:54:15;96635.06;;;19.99
62932;BMP280;49037;41.898;25.004;2023-07-24T02:56:41;96635.31;;;19.92
62932;BMP280;49037;41.898;25.004;2023-07-24T02:59:06;96624.09;;;19.86
62932;BMP280;49037;41.898;25.004;2023-07-24T03:01:31;96625.16;;;19.81
62932;BMP280;49037;41.898;25.004;2023-07-24T03:05:26;96637.56;;;19.84
62932;BMP280;49037;41.898;25.004;2023-07-24T03:07:54;96625.28;;;19.72
62932;BMP280;49037;41.898;25.004;2023-07-24T03:10:25;96629.66;;;19.77
62932;BMP280;49037;41.898;25.004;2023-07-24T03:13:18;96629.88;;;19.69
62932;BMP280;49037;41.898;25.004;2023-07-24T03:16:56;96630.09;;;19.62
62932;BMP280;49037;41.898;25.004;2023-07-24T03:19:33;96635.28;;;19.69
62932;BMP280;49037;41.898;25.004;2023-07-24T03:22:02;96636.38;;;19.76
62932;BMP280;49037;41.898;25.004;2023-07-24T03:24:36;96628.69;;;19.72
62932;BMP280;49037;41.898;25.004;2023-07-24T03:30:52;96628.38;;;19.89
62932;BMP280;49037;41.898;25.004;2023-07-24T03:33:17;96620.69;;;19.97
62932;BMP280;49037;41.898;25.004;2023-07-24T03:37:02;96638.63;;;20.02
62932;BMP280;49037;41.898;25.004;2023-07-24T03:39:30;96611.38;;;20.00
62932;BMP280;49037;41.898;25.004;2023-07-24T03:41:56;96628.34;;;20.12
62932;BMP280;49037;41.898;25.004;2023-07-24T03:44:21;96633.03;;;20.11
62932;BMP280;49037;41.898;25.004;2023-07-24T03:46:49;96633.53;;;20.08
62932;BMP280;49037;41.898;25.004;2023-07-24T03:49:16;96618.69;;;19.97
62932;BMP280;49037;41.898;25.004;2023-07-24T03:51:44;96620.56;;;20.06
62932;BMP280;49037;41.898;25.004;2023-07-24T03:54:32;96640.91;;;20.41
62932;BMP280;49037;41.898;25.004;2023-07-24T03:57:01;96635.00;;;20.45
62932;BMP280;49037;41.898;25.004;2023-07-24T03:59:26;96637.63;;;20.31
62932;BMP280;49037;41.898;25.004;2023-07-24T04:01:52;96648.97;;;20.28
62932;BMP280;49037;41.898;25.004;2023-07-24T04:04:17;96648.03;;;20.23
62932;BMP280;49037;41.898;25.004;2023-07-24T04:07:48;96633.78;;;20.12
62932;BMP280;49037;41.898;25.004;2023-07-24T04:10:13;96643.34;;;20.13
62932;BMP280;49037;41.898;25.004;2023-07-24T04:14:00;96642.38;;;20.20
62932;BMP280;49037;41.898;25.004;2023-07-24T04:16:29;96645.31;;;20.23
62932;BMP280;49037;41.898;25.004;2023-07-24T04:18:54;96640.59;;;20.35
62932;BMP280;49037;41.898;25.004;2023-07-24T04:21:19;96655.63;;;20.61
62932;BMP280;49037;41.898;25.004;2023-07-24T04:23:45;96644.03;;;20.72
62932;BMP280;49037;41.898;25.004;2023-07-24T04:28:32;96658.47;;;21.24
62932;BMP280;49037;41.898;25.004;2023-07-24T04:34:19;96653.00;;;21.62
62932;BMP280;49037;41.898;25.004;2023-07-24T04:36:50;96647.69;;;21.77
62932;BMP280;49037;41.898;25.004;2023-07-24T04:39:15;96657.38;;;21.93
62932;BMP280;49037;41.898;25.004;2023-07-24T04:41:41;96649.50;;;22.12
62932;BMP280;49037;41.898;25.004;2023-07-24T04:44:06;96655.53;;;22.38
62932;BMP280;49037;41.898;25.004;2023-07-24T04:46:32;96662.03;;;22.73
62932;BMP280;49037;41.898;25.004;2023-07-24T04:49:46;96654.84;;;23.08
62932;BMP280;49037;41.898;25.004;2023-07-24T04:52:14;96664.03;;;23.45
62932;BMP280;49037;41.898;25.004;2023-07-24T04:55:09;96667.19;;;23.70
62932;BMP280;49037;41.898;25.004;2023-07-24T04:58:35;96666.19;;;23.94
62932;BMP280;49037;41.898;25.004;2023-07-24T05:01:04;96656.81;;;24.14
62932;BMP280;49037;41.898;25.004;2023-07-24T05:03:53;96657.97;;;24.42
62932;BMP280;49037;41.898;25.004;2023-07-24T05:06:18;96661.06;;;24.67
62932;BMP280;49037;41.898;25.004;2023-07-24T05:08:44;96667.84;;;24.83
62932;BMP280;49037;41.898;25.004;2023-07-24T05:11:09;96680.72;;;25.15
62932;BMP280;49037;41.898;25.004;2023-07-24T05:13:37;96679.56;;;25.39
62932;BMP280;49037;41.898;25.004;2023-07-24T05:16:03;96680.09;;;25.72
62932;BMP280;49037;41.898;25.004;2023-07-24T05:18:31;96687.59;;;25.91
62932;BMP280;49037;41.898;25.004;2023-07-24T05:20:56;96677.84;;;26.05
62932;BMP280;49037;41.898;25.004;2023-07-24T05:24:59;96699.47;;;26.38
62932;BMP280;49037;41.898;25.004;2023-07-24T05:27:33;96696.28;;;26.24
62932;BMP280;49037;41.898;25.004;2023-07-24T05:30:03;96695.44;;;26.20
62932;BMP280;49037;41.898;25.004;2023-07-24T05:32:31;96705.78;;;25.83
62932;BMP280;49037;41.898;25.004;2023-07-24T05:36:25;96703.03;;;25.83
62932;BMP280;49037;41.898;25.004;2023-07-24T05:38:54;96706.69;;;25.89
62932;BMP280;49037;41.898;25.004;2023-07-24T05:43:22;96697.41;;;25.79
62932;BMP280;49037;41.898;25.004;2023-07-24T05:45:50;96692.72;;;26.01
62932;BMP280;49037;41.898;25.004;2023-07-24T05:48:15;96701.47;;;26.16
62932;BMP280;49037;41.898;25.004;2023-07-24T05:52:22;96688.50;;;25.98
62932;BMP280;49037;41.898;25.004;2023-07-24T05:54:50;96696.16;;;25.82
62932;BMP280;49037;41.898;25.004;2023-07-24T05:58:39;96686.50;;;26.19
62932;BMP280;49037;41.898;25.004;2023-07-24T06:01:11;96688.66;;;26.42
62932;BMP280;49037;41.898;25.004;2023-07-24T06:05:53;96698.16;;;26.39
62932;BMP280;49037;41.898;25.004;2023-07-24T06:08:31;96695.06;;;26.29
62932;BMP280;49037;41.898;25.004;2023-07-24T06:11:24;96692.59;;;26.37
62932;BMP280;49037;41.898;25.004;2023-07-24T06:34:10;96663.72;;;27.23
62932;BMP280;49037;41.898;25.004;2023-07-24T06:36:39;96666.53;;;27.25
62932;BMP280;49037;41.898;25.004;2023-07-24T06:42:16;96660.25;;;27.45
62932;BMP280;49037;41.898;25.004;2023-07-24T06:44:45;96659.13;;;27.06
62932;BMP280;49037;41.898;25.004;2023-07-24T06:47:34;96667.75;;;27.43
62932;BMP280;49037;41.898;25.004;2023-07-24T06:50:48;96651.75;;;27.36
62932;BMP280;49037;41.898;25.004;2023-07-24T06:53:37;96655.69;;;27.54
62932;BMP280;49037;41.898;25.004;2023-07-24T06:56:07;96659.13;;;27.79
62932;BMP280;49037;41.898;25.004;2023-07-24T06:58:44;96658.63;;;27.85
62932;BMP280;49037;41.898;25.004;2023-07-24T07:01:26;96652.69;;;27.69
62932;BMP280;49037;41.898;25.004;2023-07-24T07:04:09;96646.38;;;27.90
62932;BMP280;49037;41.898;25.004;2023-07-24T07:06:35;96672.66;;;28.24
62932;BMP280;49037;41.898;25.004;2023-07-24T07:09:03;96650.78;;;28.28
62932;BMP280;49037;41.898;25.004;2023-07-24T07:11:41;96647.78;;;28.18
62932;BMP280;49037;41.898;25.004;2023-07-24T07:17:43;96649.94;;;28.21
62932;BMP280;49037;41.898;25.004;2023-07-24T07:20:14;96658.56;;;28.10
62932;BMP280;49037;41.898;25.004;2023-07-24T07:22:59;96656.09;;;28.20
62932;BMP280;49037;41.898;25.004;2023-07-24T07:25:56;96652.47;;;28.13
62932;BMP280;49037;41.898;25.004;2023-07-24T07:35:59;96646.47;;;28.50
62932;BMP280;49037;41.898;25.004;2023-07-24T07:38:27;96636.03;;;28.42
62932;BMP280;49037;41.898;25.004;2023-07-24T07:40:53;96639.19;;;28.31
62932;BMP280;49037;41.898;25.004;2023-07-24T07:43:18;96631.78;;;28.69
62932;BMP280;49037;41.898;25.004;2023-07-24T07:45:48;96630.28;;;28.95
62932;BMP280;49037;41.898;25.004;2023-07-24T07:52:02;96628.34;;;28.99
62932;BMP280;49037;41.898;25.004;2023-07-24T07:54:49;96623.75;;;28.78
62932;BMP280;49037;41.898;25.004;2023-07-24T07:57:15;96637.41;;;29.05
62932;BMP280;49037;41.898;25.004;2023-07-24T07:59:43;96627.16;;;29.08
62932;BMP280;49037;41.898;25.004;2023-07-24T08:02:09;96625.50;;;29.30
62932;BMP280;49037;41.898;25.004;2023-07-24T08:04:37;96631.75;;;29.70
62932;BMP280;49037;41.898;25.004;2023-07-24T08:07:03;96633.63;;;29.98
62932;BMP280;49037;41.898;25.004;2023-07-24T08:09:37;96637.78;;;29.99
62932;BMP280;49037;41.898;25.004;2023-07-24T08:12:09;96628.72;;;29.93
62932;BMP280;49037;41.898;25.004;2023-07-24T08:14:37;96637.25;;;29.70
62932;BMP280;49037;41.898;25.004;2023-07-24T08:17:03;96625.03;;;29.78
62932;BMP280;49037;41.898;25.004;2023-07-24T08:19:28;96623.50;;;29.70
62932;BMP280;49037;41.898;25.004;2023-07-24T08:21:55;96623.31;;;29.99
62932;BMP280;49037;41.898;25.004;2023-07-24T08:24:20;96629.13;;;30.18
62932;BMP280;49037;41.898;25.004;2023-07-24T08:26:46;96617.09;;;29.98
62932;BMP280;49037;41.898;25.004;2023-07-24T08:29:11;96624.50;;;29.88
62932;BMP280;49037;41.898;25.004;2023-07-24T08:31:46;96622.25;;;30.17
62932;BMP280;49037;41.898;25.004;2023-07-24T08:37:12;96633.75;;;30.49
62932;BMP280;49037;41.898;25.004;2023-07-24T08:39:38;96623.03;;;29.83
62932;BMP280;49037;41.898;25.004;2023-07-24T08:42:10;96621.63;;;29.80
62932;BMP280;49037;41.898;25.004;2023-07-24T08:44:36;96614.63;;;30.16
62932;BMP280;49037;41.898;25.004;2023-07-24T08:47:03;96611.88;;;30.63
62932;BMP280;49037;41.898;25.004;2023-07-24T08:49:29;96606.63;;;30.82
62932;BMP280;49037;41.898;25.004;2023-07-24T08:52:01;96607.84;;;31.28
62932;BMP280;49037;41.898;25.004;2023-07-24T08:54:36;96598.31;;;31.43
62932;BMP280;49037;41.898;25.004;2023-07-24T08:57:07;96615.09;;;31.61
62932;BMP280;49037;41.898;25.004;2023-07-24T08:59:56;96599.16;;;31.57
62932;BMP280;49037;41.898;25.004;2023-07-24T09:02:21;96608.88;;;31.64
62932;BMP280;49037;41.898;25.004;2023-07-24T09:04:50;96602.50;;;31.48
62932;BMP280;49037;41.898;25.004;2023-07-24T09:07:31;96592.78;;;31.41
62932;BMP280;49037;41.898;25.004;2023-07-24T09:10:01;96609.50;;;31.55
62932;BMP280;49037;41.898;25.004;2023-07-24T09:12:30;96608.44;;;31.17
62932;BMP280;49037;41.898;25.004;2023-07-24T09:15:08;96605.47;;;31.69
62932;BMP280;49037;41.898;25.004;2023-07-24T09:18:16;96591.66;;;31.67
62932;BMP280;49037;41.898;25.004;2023-07-24T09:25:00;96588.69;;;30.81
62932;BMP280;49037;41.898;25.004;2023-07-24T09:28:16;96591.13;;;31.16
62932;BMP280;49037;41.898;25.004;2023-07-24T09:31:20;96589.91;;;31.31
62932;BMP280;49037;41.898;25.004;2023-07-24T09:34:41;96578.03;;;31.93
62932;BMP280;49037;41.898;25.004;2023-07-24T09:38:07;96576.25;;;32.39
62932;BMP280;49037;41.898;25.004;2023-07-24T09:44:18;96577.50;;;31.30
62932;BMP280;49037;41.898;25.004;2023-07-24T09:47:00;96564.84;;;31.88
62932;BMP280;49037;41.898;25.004;2023-07-24T09:49:31;96577.56;;;32.28
62932;BMP280;49037;41.898;25.004;2023-07-24T09:52:03;96568.59;;;32.27
62932;BMP280;49037;41.898;25.004;2023-07-24T09:54:41;96550.53;;;32.11
62932;BMP280;49037;41.898;25.004;2023-07-24T09:57:34;96562.22;;;31.99
62932;BMP280;49037;41.898;25.004;2023-07-24T10:00:04;96552.44;;;31.87
62932;BMP280;49037;41.898;25.004;2023-07-24T10:02:29;96547.81;;;32.23
62932;BMP280;49037;41.898;25.004;2023-07-24T10:04:55;96559.03;;;32.54
62932;BMP280;49037;41.898;25.004;2023-07-24T10:07:24;96550.03;;;32.56
62932;BMP280;49037;41.898;25.004;2023-07-24T10:09:49;96550.13;;;32.77
62932;BMP280;49037;41.898;25.004;2023-07-24T10:12:31;96529.38;;;32.78
62932;BMP280;49037;41.898;25.004;2023-07-24T10:15:27;96537.50;;;32.31
62932;BMP280;49037;41.898;25.004;2023-07-24T10:18:04;96527.88;;;32.44
62932;BMP280;49037;41.898;25.004;2023-07-24T10:20:36;96532.13;;;32.70
62932;BMP280;49037;41.898;25.004;2023-07-24T10:23:10;96528.03;;;32.89
62932;BMP280;49037;41.898;25.004;2023-07-24T10:25:39;96527.41;;;33.22
62932;BMP280;49037;41.898;25.004;2023-07-24T10:28:17;96528.09;;;33.40
62932;BMP280;49037;41.898;25.004;2023-07-24T10:30:54;96523.25;;;33.49
62932;BMP280;49037;41.898;25.004;2023-07-24T10:33:20;96516.94;;;32.77
62932;BMP280;49037;41.898;25.004;2023-07-24T10:36:04;96509.38;;;33.07
62932;BMP280;49037;41.898;25.004;2023-07-24T10:38:41;96514.19;;;32.95
62932;BMP280;49037;41.898;25.004;2023-07-24T10:47:52;96500.34;;;33.64
62932;BMP280;49037;41.898;25.004;2023-07-24T10:50:44;96497.59;;;33.32
62932;BMP280;49037;41.898;25.004;2023-07-24T10:53:20;96497.56;;;32.81
62932;BMP280;49037;41.898;25.004;2023-07-24T10:56:07;96493.38;;;32.66
62932;BMP280;49037;41.898;25.004;2023-07-24T10:59:01;96474.00;;;32.66
62932;BMP280;49037;41.898;25.004;2023-07-24T11:01:38;96476.81;;;33.17
62932;BMP280;49037;41.898;25.004;2023-07-24T11:04:16;96465.03;;;33.54
62932;BMP280;49037;41.898;25.004;2023-07-24T11:06:53;96474.78;;;33.32
62932;BMP280;49037;41.898;25.004;2023-07-24T11:09:43;96471.97;;;32.88
62932;BMP280;49037;41.898;25.004;2023-07-24T11:12:38;96462.28;;;33.43
62932;BMP280;49037;41.898;25.004;2023-07-24T11:18:46;96448.41;;;33.64
62932;BMP280;49037;41.898;25.004;2023-07-24T11:21:40;96449.75;;;33.75
62932;BMP280;49037;41.898;25.004;2023-07-24T11:24:17;96440.72;;;33.94
62932;BMP280;49037;41.898;25.004;2023-07-24T11:27:15;96446.13;;;34.18
62932;BMP280;49037;41.898;25.004;2023-07-24T11:32:54;96455.31;;;33.61
62932;BMP280;49037;41.898;25.004;2023-07-24T11:35:20;96449.06;;;33.69
62932;BMP280;49037;41.898;25.004;2023-07-24T11:37:47;96439.34;;;33.87
62932;BMP280;49037;41.898;25.004;2023-07-24T11:40:31;96426.78;;;34.08
62932;BMP280;49037;41.898;25.004;2023-07-24T11:43:02;96422.56;;;34.21
62932;BMP280;49037;41.898;25.004;2023-07-24T11:46:21;96426.69;;;34.24
62932;BMP280;49037;41.898;25.004;2023-07-24T11:49:16;96428.09;;;34.23
62932;BMP280;49037;41.898;25.004;2023-07-24T11:51:44;96429.44;;;34.30
62932;BMP280;49037;41.898;25.004;2023-07-24T11:54:41;96434.84;;;34.55
62932;BMP280;49037;41.898;25.004;2023-07-24T11:57:25;96427.75;;;34.78
62932;BMP280;49037;41.898;25.004;2023-07-24T12:03:43;96413.34;;;34.56
62932;BMP280;49037;41.898;25.004;2023-07-24T12:09:21;96421.66;;;34.56
62932;BMP280;49037;41.898;25.004;2023-07-24T12:11:47;96422.25;;;34.70
62932;BMP280;49037;41.898;25.004;2023-07-24T12:17:44;96405.84;;;34.33
62932;BMP280;49037;41.898;25.004;2023-07-24T12:20:29;96418.84;;;34.62
62932;BMP280;49037;41.898;25.004;2023-07-24T12:22:55;96413.84;;;34.82
62932;BMP280;49037;41.898;25.004;2023-07-24T12:25:21;96414.53;;;34.82
62932;BMP280;49037;41.898;25.004;2023-07-24T12:28:01;96408.94;;;34.86
62932;BMP280;49037;41.898;25.004;2023-07-24T12:30:50;96405.63;;;34.64
62932;BMP280;49037;41.898;25.004;2023-07-24T12:33:51;96398.75;;;34.55
62932;BMP280;49037;41.898;25.004;2023-07-24T12:39:38;96396.59;;;34.66
62932;BMP280;49037;41.898;25.004;2023-07-24T12:42:23;96407.03;;;34.63
62932;BMP280;49037;41.898;25.004;2023-07-24T12:45:02;96401.47;;;34.67
62932;BMP280;49037;41.898;25.004;2023-07-24T12:47:40;96388.75;;;34.94
62932;BMP280;49037;41.898;25.004;2023-07-24T12:53:08;96388.09;;;34.91
62932;BMP280;49037;41.898;25.004;2023-07-24T12:55:37;96387.38;;;34.91
62932;BMP280;49037;41.898;25.004;2023-07-24T12:58:05;96383.16;;;34.96
62932;BMP280;49037;41.898;25.004;2023-07-24T13:00:47;96384.56;;;34.97
62932;BMP280;49037;41.898;25.004;2023-07-24T13:03:23;96379.66;;;34.97
62932;BMP280;49037;41.898;25.004;2023-07-24T13:05:54;96362.34;;;34.95
62932;BMP280;49037;41.898;25.004;2023-07-24T13:08:38;96373.53;;;34.89
62932;BMP280;49037;41.898;25.004;2023-07-24T13:11:48;96367.16;;;35.00
62932;BMP280;49037;41.898;25.004;2023-07-24T13:21:01;96367.22;;;34.96
62932;BMP280;49037;41.898;25.004;2023-07-24T13:23:42;96360.81;;;35.09
62932;BMP280;49037;41.898;25.004;2023-07-24T13:26:07;96364.44;;;34.94
62932;BMP280;49037;41.898;25.004;2023-07-24T13:28:44;96365.50;;;34.51
62932;BMP280;49037;41.898;25.004;2023-07-24T13:31:35;96360.84;;;34.20
62932;BMP280;49037;41.898;25.004;2023-07-24T13:34:42;96364.81;;;34.51
62932;BMP280;49037;41.898;25.004;2023-07-24T13:37:13;96368.09;;;34.73
62932;BMP280;49037;41.898;25.004;2023-07-24T13:39:52;96361.31;;;34.52
62932;BMP280;49037;41.898;25.004;2023-07-24T13:42:19;96370.13;;;34.80
62932;BMP280;49037;41.898;25.004;2023-07-24T13:44:47;96361.03;;;34.90
62932;BMP280;49037;41.898;25.004;2023-07-24T13:47:16;96354.69;;;34.99
62932;BMP280;49037;41.898;25.004;2023-07-24T13:49:41;96340.03;;;35.04
62932;BMP280;49037;41.898;25.004;2023-07-24T13:52:07;96346.25;;;35.09
62932;BMP280;49037;41.898;25.004;2023-07-24T13:54:32;96338.78;;;34.92
62932;BMP280;49037;41.898;25.004;2023-07-24T13:57:00;96333.97;;;34.84
62932;BMP280;49037;41.898;25.004;2023-07-24T13:59:28;96335.31;;;34.91
62932;BMP280;49037;41.898;25.004;2023-07-24T14:01:56;96333.13;;;35.00
62932;BMP280;49037;41.898;25.004;2023-07-24T14:04:21;96321.91;;;35.11
62932;BMP280;49037;41.898;25.004;2023-07-24T14:06:50;96323.25;;;35.16
62932;BMP280;49037;41.898;25.004;2023-07-24T14:09:16;96334.16;;;35.34
62932;BMP280;49037;41.898;25.004;2023-07-24T14:12:12;96321.81;;;35.21
62932;BMP280;49037;41.898;25.004;2023-07-24T14:14:56;96334.88;;;35.32
62932;BMP280;49037;41.898;25.004;2023-07-24T14:17:27;96325.78;;;35.40
62932;BMP280;49037;41.898;25.004;2023-07-24T14:20:05;96316.13;;;35.31
62932;BMP280;49037;41.898;25.004;2023-07-24T14:22:35;96324.34;;;35.41
62932;BMP280;49037;41.898;25.004;2023-07-24T14:25:04;96319.63;;;35.32
62932;BMP280;49037;41.898;25.004;2023-07-24T14:27:40;96312.19;;;35.12
62932;BMP280;49037;41.898;25.004;2023-07-24T14:30:08;96314.31;;;35.10
62932;BMP280;49037;41.898;25.004;2023-07-24T14:33:06;96298.16;;;35.26
62932;BMP280;49037;41.898;25.004;2023-07-24T14:35:43;96300.06;;;35.39
62932;BMP280;49037;41.898;25.004;2023-07-24T14:38:24;96300.72;;;35.44
62932;BMP280;49037;41.898;25.004;2023-07-24T14:40:54;96290.94;;;35.47
62932;BMP280;49037;41.898;25.004;2023-07-24T14:43:20;96298.97;;;35.15
62932;BMP280;49037;41.898;25.004;2023-07-24T14:45:48;96298.88;;;35.23
62932;BMP280;49037;41.898;25.004;2023-07-24T14:48:20;96298.16;;;35.26
62932;BMP280;49037;41.898;25.004;2023-07-24T14:54:11;96307.88;;;35.25
62932;BMP280;49037;41.898;25.004;2023-07-24T14:56:55;96300.56;;;34.96
62932;BMP280;49037;41.898;25.004;2023-07-24T14:59:24;96301.19;;;35.01
62932;BMP280;49037;41.898;25.004;2023-07-24T15:01:52;96296.44;;;34.89
62932;BMP280;49037;41.898;25.004;2023-07-24T15:04:22;96293.69;;;34.89
62932;BMP280;49037;41.898;25.004;2023-07-24T15:07:17;96295.97;;;34.71
62932;BMP280;49037;41.898;25.004;2023-07-24T15:10:03;96293.88;;;34.68
62932;BMP280;49037;41.898;25.004;2023-07-24T15:12:37;96291.75;;;34.72
62932;BMP280;49037;41.898;25.004;2023-07-24T15:15:12;96286.16;;;34.76
62932;BMP280;49037;41.898;25.004;2023-07-24T15:17:38;96286.16;;;34.76
62932;BMP280;49037;41.898;25.004;2023-07-24T15:20:05;96287.84;;;34.41
62932;BMP280;49037;41.898;25.004;2023-07-24T15:22:34;96296.91;;;34.42
62932;BMP280;49037;41.898;25.004;2023-07-24T15:25:00;96295.66;;;34.21
62932;BMP280;49037;41.898;25.004;2023-07-24T15:27:25;96293.53;;;34.24
62932;BMP280;49037;41.898;25.004;2023-07-24T15:29:59;96281.22;;;34.01
62932;BMP280;49037;41.898;25.004;2023-07-24T15:32:25;96283.94;;;34.09
62932;BMP280;49037;41.898;25.004;2023-07-24T15:34:50;96272.19;;;34.03
62932;BMP280;49037;41.898;25.004;2023-07-24T15:37:16;96270.16;;;33.99
62932;BMP280;49037;41.898;25.004;2023-07-24T15:39:41;96278.59;;;33.80
62932;BMP280;49037;41.898;25.004;2023-07-24T15:42:07;96277.19;;;33.77
62932;BMP280;49037;41.898;25.004;2023-07-24T15:44:32;96266.78;;;33.79
62932;BMP280;49037;41.898;25.004;2023-07-24T15:46:58;96269.59;;;33.77
62932;BMP280;49037;41.898;25.004;2023-07-24T15:49:26;96271.69;;;33.75
62932;BMP280;49037;41.898;25.004;2023-07-24T15:51:51;96273.09;;;33.68
62932;BMP280;49037;41.898;25.004;2023-07-24T15:54:17;96266.22;;;33.61
62932;BMP280;49037;41.898;25.004;2023-07-24T15:56:42;96263.44;;;33.63
62932;BMP280;49037;41.898;25.004;2023-07-24T15:59:10;96260.72;;;33.53
62932;BMP280;49037;41.898;25.004;2023-07-24T16:01:38;96251.81;;;33.27
62932;BMP280;49037;41.898;25.004;2023-07-24T16:04:04;96255.31;;;33.12
62932;BMP280;49037;41.898;25.004;2023-07-24T16:06:29;96244.97;;;32.96
62932;BMP280;49037;41.898;25.004;2023-07-24T16:08:57;96251.25;;;32.79
62932;BMP280;49037;41.898;25.004;2023-07-24T16:11:24;96251.94;;;32.64
62932;BMP280;49037;41.898;25.004;2023-07-24T16:13:55;96256.78;;;32.44
62932;BMP280;49037;41.898;25.004;2023-07-24T16:16:20;96260.22;;;32.38
62932;BMP280;49037;41.898;25.004;2023-07-24T16:19:20;96240.22;;;32.22
62932;BMP280;49037;41.898;25.004;2023-07-24T16:21:48;96241.53;;;32.05
62932;BMP280;49037;41.898;25.004;2023-07-24T16:24:23;96258.13;;;32.01
62932;BMP280;49037;41.898;25.004;2023-07-24T16:26:49;96250.47;;;31.76
62932;BMP280;49037;41.898;25.004;2023-07-24T16:29:15;96242.06;;;31.45
62932;BMP280;49037;41.898;25.004;2023-07-24T16:31:43;96244.78;;;31.29
62932;BMP280;49037;41.898;25.004;2023-07-24T16:34:28;96243.09;;;30.83
62932;BMP280;49037;41.898;25.004;2023-07-24T16:36:56;96240.34;;;30.79
62932;BMP280;49037;41.898;25.004;2023-07-24T16:39:23;96224.38;;;30.69
62932;BMP280;49037;41.898;25.004;2023-07-24T16:41:49;96236.13;;;30.70
62932;BMP280;49037;41.898;25.004;2023-07-24T16:44:14;96231.28;;;30.68